• Join FlightAware (Why Join?)
  • Login
  • US Flag 
03:37PM EST


 

Airport Tracker/Info


-or-


 

Live Flight TrackerFlight Track Log ✈ N1926A ✈ 27-May-2013 ✈ KECP - 41A

Flight Track Log - Related Links

Times and Time Zones

All times are in EDT time to prevent confusion due to time zone crossing. See the N1926A flight status page for this flight to view local times or setup timezone preferences in your user account.

Time Position Orientation Groundspeed Altitude Reporting Facility
EDT Latitude Longitude Course Direction KTS MPH feet Rate Location/Type
05:17PM 30.2928 -85.7600 161° South 241 277 2,600  Level Jacksonville Center
05:18PM 30.2533 -85.7444 161° South 188 216 5,300 2,150 Climbing Jacksonville Center
05:19PM 30.2603 -85.7158 145° Southeast 121 139 6,900 1,750 Climbing Jacksonville Center
05:20PM 30.3125 -85.7197 356° North 84 97 8,800 1,700 Climbing Jacksonville Center
05:21PM 30.3686 -85.7239 356° North 165 190 10,300 1,350 Climbing Jacksonville Center
05:22PM 30.4333 -85.7258 359° North 191 220 11,500 1,100 Climbing Jacksonville Center
05:23PM 30.5042 -85.7278 359° North 223 257 12,500 850 Climbing Jacksonville Center
05:24PM 30.5731 -85.7347 355° North 242 278 13,200 600 Climbing Jacksonville Center
05:25PM 30.6500 -85.7419 355° North 256 295 13,700 400 Climbing Jacksonville Center
05:26PM 30.7208 -85.7489 355° North 261 300 14,000 200 Climbing Jacksonville Center
05:27PM 30.7961 -85.7511 359° North 261 300 14,100 50 Climbing Jacksonville Center
05:28PM 30.8711 -85.7533 359° North 261 300 14,100  Level Jacksonville Center
05:29PM 30.9442 -85.7603 355° North 261 300 14,100  Level Jacksonville Center
05:30PM 31.0192 -85.7675 355° North 261 300 14,100  Level Jacksonville Center
05:31PM 31.0942 -85.7697 359° North 261 300 14,100  Level Jacksonville Center
05:32PM 31.1692 -85.7744 357° North 261 300 14,100  Level Jacksonville Center
05:33PM 31.2442 -85.7792 357° North 267 307 14,100  Level Jacksonville Center
05:34PM 31.3172 -85.7889 354° North 267 307 14,100  Level Jacksonville Center
05:35PM 31.4006 -85.7961 356° North 272 313 14,100  Level Jacksonville Center
05:36PM 31.5275 -85.8003 358° North 273 314 14,100  Level Atlanta Center
05:37PM 31.6025 -85.8067 356° North 268 308 14,100  Level Atlanta Center
05:38PM 31.6756 -85.8106 357° North 268 308 14,100  Level Atlanta Center
05:39PM 31.7506 -85.8192 354° North 268 308 14,100 -150 Level Atlanta Center
05:40PM 31.8256 -85.8256 356° North 273 314 13,800 -750 Descending Atlanta Center
05:41PM 31.9047 -85.8322 356° North 273 314 12,600 -1,050 Descending Atlanta Center
05:42PM 31.9861 -85.8386 356° North 279 321 11,700 -750 Descending Atlanta Center
05:43PM 32.0672 -85.8475 355° North 284 327 11,100 -650 Descending Atlanta Center
05:44PM 32.1467 -85.8517 357° North 284 327 10,400 -1,750 Descending Atlanta Center
05:45PM 32.2258 -85.8483 North 272 313 7,600 -2,200 Descending Atlanta Center
05:46PM 32.2947 -85.8497 359° North 255 293 6,000 -1,300 Descending Atlanta Center
05:47PM 32.3575 -85.8511 359° North 250 288 5,000 -1,000 Descending Atlanta Center
05:53PM 32.4212 -85.8642 350° North  Level FlightAware Approximate
06:00PM 32.5000 -85.8667 220° Southwest  Level FlightAware Approximate